Aviation Digital Data Service (ADDS)

Output produced by METARs form (2232 UTC 30 March 2017)
found at http://www.aviationweather.gov/adds/metars/
 
TAF KBAB 301909Z 3019/0101 33012G18KT 9999 FEW100 SCT200 510009 QNH2999INS 
     TEMPO 3019/3102 33015G25KT 
     BECMG 3101/3102 33012KT 9999 SCT200 510009 QNH2991INS 
     TEMPO 3118/3124 33015G25KT 
     BECMG 3123/3124 33009KT 9999 FEW200 QNH2989INS TX18/3021Z TN07/3112Z
       
TAF AMD KBAD 301317Z 3013/3116 26006KT 9999 SCT040 QNH2973INS 
     BECMG 3014/3015 28012KT 9999 FEW050 QNH2974INS 
     BECMG 3023/3024 VRB06KT 9999 SKC QNH2979INS TX22/3021Z TN12/3012Z LAST NO AMDS AFT 3013 NEXT 0310
       
KBAF 301736Z 3018/3118 02005KT P6SM FEW150 
     FM310900 VRB03KT 3SM -SN OVC020 
     FM311200 VRB03KT 1SM -SN OVC010 
     FM311400 06004KT 2SM -PLSNRA OVC010 
     FM311600 06005KT 1SM -PLRASN OVC010
       
KBBD 301720Z 3018/3118 25011KT P6SM SCT200 
     FM310000 18006KT P6SM SKC 
     FM311500 18014G23KT P6SM SKC AMD NOT SKED
       
KBBG 302023Z 3020/3118 23011KT 3SM -RADZ BR OVC020 
     FM310000 27010KT P6SM OVC015 
     FM310700 29006KT P6SM OVC010 
     FM310900 29005KT P6SM OVC008 
     FM311400 31004KT P6SM SCT010
       
KBCB 301739Z 3018/3118 13007KT P6SM VCSH OVC008 
     FM302000 13007KT P6SM OVC010 
     FM310200 12006KT P6SM VCSH OVC008 
     FM310700 11005KT 2SM -SHRA OVC008 
     FM311500 19007KT 5SM -SHRA OVC003 
     FM311700 23007KT 5SM -SHRA OVC010
       
KBCE 302140Z 3022/3118 18028G38KT P6SM VCSH SCT050 BKN070 
     FM310000 23019G30KT 5SM -RASN SCT015 BKN035 
     FM310300 30014G28KT 2SM -SN BR SCT008 BKN015 OVC030
       
KBDL 302137Z 3022/3124 04005KT P6SM FEW150 BKN250 
     FM310700 VRB03KT P6SM VCSH OVC025 
     FM310900 04004KT 3SM -SN OVC010 
     FM311200 05005KT 2SM -RAPL OVC010 
     FM312300 08009KT 1SM -RAPL OVC010
       
KBDR 302110Z 3021/3118 18005KT P6SM BKN100 
     FM310600 18005KT P6SM BKN030 
     FM311100 11008KT 5SM -RA OVC010 
     FM311600 11013G20KT 2SM -RA OVC004
       
KBED 301736Z 3018/3118 34005KT P6SM SKC 
     FM311300 VRB03KT 2SM -SN OVC020 
     FM311600 07004KT 1SM -SN OVC020
       
KBFD 302142Z 3022/3118 12012G19KT 6SM -SHRA BR OVC030 WS020/17035KT 
     FM310000 13012G19KT 5SM BR OVC025 
     FM310200 14012KT 2SM BR OVC007 WS020/18035KT 
     FM310600 15010KT 1SM -RA BR OVC004 WS020/20042KT
       
KBFF 301720Z 3018/3118 12009KT P6SM BKN150 
     FM310100 10011KT P6SM BKN100 
     FM310700 09013KT 5SM BR OVC015 
     FM311300 10012KT 2SM -RA BR OVC015
       
KBFI 302102Z 3021/3118 33005KT P6SM VCSH SCT025 BKN050 
     FM310000 33010KT P6SM SCT025 BKN050 
     FM310600 VRB03KT P6SM SCT040 SCT200 
     FM311700 VRB03KT P6SM BKN200
       
KBFL 301932Z 3020/3118 33016G25KT P6SM BKN027 BKN035 OVC045 
     TEMPO 3022/3102 33014G24KT 
     FM310800 33009KT P6SM SCT050
       
KBFM 301927Z 3019/3118 VRB05KT P6SM SCT035 OVC070 
     TEMPO 3021/3023 P6SM -RA OVC030 
     FM302300 19007KT P6SM VCSH OVC015 
     TEMPO 3100/3102 P6SM -RA OVC012 
     FM310200 VRB04KT 4SM BR OVC007 
     FM311300 34005KT P6SM SKC
       
KBGM 301720Z 3018/3118 VRB04KT P6SM SCT200 
     FM302100 13008KT P6SM BKN060 
     FM310300 14010KT P6SM -RA OVC025 
     FM310500 14010KT 5SM -RA OVC015 
     FM310800 14011KT 3SM -RA OVC008 
     FM311300 15013G22KT 1 1/2SM -RA OVC003
       
KBGR 301720Z 3018/3118 34010KT P6SM SCT040 
     FM310000 35006KT P6SM FEW090
       
KBHB 301720Z 3018/3118 34012KT P6SM SCT040 
     FM310200 36010KT P6SM FEW250 
     FM311700 01006KT P6SM SCT250
       
KBHM 302106Z 3021/3118 19011G20KT P6SM RA VCTS SCT045CB OVC150 
     TEMPO 3021/3023 19012G25KT 3SM TSRA OVC025CB 
     FM310700 24005KT P6SM SHRA BKN030 
     FM311200 24004KT P6SM SCT050
       
TAF KBIF 302204Z 3022/0104 25012G18KT 9999 SKC QNH2980INS 
     BECMG 3101/3102 21009KT 9999 FEW200 QNH2976INS 
     TEMPO 3104/3108 20015G25KT 520009 
     BECMG 3114/3115 19015G20KT 9999 SCT140 QNH2972INS 
     BECMG 3118/3119 23025G35KT 9999 SCT100 500009 QNH2964INS 
     TEMPO 3119/3122 24035G45KT 9999 SCT100 BKN120 530009 QNH2964INS 
     BECMG 0103/0104 26015G25KT 9999 BKN090 BKN150 520009 QNH2980INS TX27/3121Z TN11/3112Z
       
KBIH 302058Z 3021/3118 36038G52KT 5SM BLDU BKN120 
     TEMPO 3021/3024 2SM BLDU 
     FM310300 36021G29KT P6SM SCT080 BKN100 
     FM311100 34015G23KT P6SM SCT080 BKN100
       
KBIL 301734Z 3018/3118 VRB05KT P6SM -RA FEW002 BKN015 OVC030 
     TEMPO 3018/3019 1/2SM RA FZFG BKN002 OVC020 
     FM302000 03010KT P6SM VCSH SCT020 BKN060 
     FM310600 04008KT 3SM -RA BR SCT002 SCT015 OVC040 
     FM311000 02008KT 2SM -RA BR BKN002 OVC012
       
KBIS 301734Z 3018/3118 16015KT P6SM SCT015 BKN250 
     FM310100 13008KT P6SM BKN250 
     FM310800 12004KT P6SM BKN100 
     FM311500 11004KT P6SM SCT250
       
TAF AMD KBIX 302145Z 3021/3124 09009KT 9999 FEW030 QNH2971INS 
     BECMG 3023/3024 09009KT 9999 SCT015 SCT100 QNH2975INS 
     BECMG 3117/3118 20006KT 9999 SKC QNH2985INS TX23/3118Z TN17/3111Z
       
KBJC 301735Z 3018/3118 VRB05KT P6SM FEW060 SCT120 BKN150 
     FM302200 09006KT P6SM VCSH SCT060 BKN100 
     FM310200 34010KT P6SM SCT050 BKN100 
     FM311000 32009KT 2SM BR BKN007 OVC015 
     FM311700 06010KT P6SM BKN015 OVC025
       
KBJI 301739Z 3018/3118 10006KT P6SM SCT150 
     FM310800 00000KT P6SM SCT200
       
KBKE 301721Z 3018/3118 33022G32KT P6SM BKN060 
     FM302000 31025G35KT P6SM VCSH BKN060 
     FM310300 31022G30KT P6SM SCT060 
     FM311200 33022G28KT P6SM FEW250
       
TAF KBKF 301706Z 3017/3123 15009KT 9999 FEW070 SCT120 QNH2968INS 
     BECMG 3020/3021 15009KT 9999 VCSH BKN070 QNH2960INS 
     BECMG 3103/3104 15012KT 9999 NSW BKN070 OVC150 QNH2958INS 
     BECMG 3108/3109 13012KT 9999 VCSH SCT070 QNH2958INS 
     BECMG 3112/3113 08012KT 9999 NSW FEW005 SCT100 BKN200 QNH2961INS 
     BECMG 3114/3115 08012KT 6000 BR BKN005 OVC100 QNH2968INS 
     BECMG 3117/3118 08015KT 6000 BR OVC004 620059 QNH2975INS 
     TEMPO 3121/3123 08012G20KT 9000 -SHRA OVC020 510009 TX18/3022Z TN03/3117Z
       
KBKW 301731Z 3018/3118 15013G23KT P6SM BKN015 
     FM310200 14010G17KT P6SM BKN015 
     FM310600 14011G19KT 6SM SHRA OVC015 
     FM310800 15010G17KT 3SM SHRA OVC015 
     FM311200 15009KT 3SM SHRA OVC008
       
KBLF 301949Z 3020/3118 15012G18KT P6SM VCSH OVC008 
     TEMPO 3021/3024 OVC012 
     FM310300 15012G20KT P6SM VCSH BKN025 
     FM310600 15015G25KT P6SM -SHRA OVC010 
     FM311300 19009KT 5SM -SHRA OVC003 
     FM311700 25011KT 5SM -SHRA OVC010
       
KBLH 302103Z 3021/3118 23025G35KT 6SM BLDU SCT250 
     TEMPO 3100/3104 1SM BLDU 
     FM310500 31024G34KT 6SM BLDU SKC
       
KBLI 301720Z 3018/3118 23007KT P6SM SCT015 BKN035 
     FM302100 24010KT P6SM SCT020 BKN040 
     FM310000 30010KT P6SM SCT025 BKN050 
     FM310600 VRB03KT P6SM SCT040 SCT200 
     FM311700 16006KT P6SM BKN200
       
TAF AMD KBLV 301900Z 3019/3122 18012KT 9999 -SHRA SCT020 BKN100 QNH2949INS 
     TEMPO 3019/3020 8000 -TSRA OVC020CB 
     BECMG 3020/3021 23012KT 9999 NSW SCT020 OVC030 QNH2950INS 
     BECMG 3023/3024 23009KT 9999 SCT010 OVC020 QNH2952INS 
     BECMG 3107/3108 30012KT 9999 BKN015 OVC030 QNH2953INS 
     BECMG 3114/3115 30010G15KT 9999 SCT015 OVC030 QNH2975INS TX21/3019Z TN09/3112Z
       
KBMG 302023Z 3020/3118 20012G22KT P6SM -SHRA VCTS SCT050CB OVC090 
     TEMPO 3022/3101 2SM -TSRA BR OVC040CB 
     FM310100 20008KT P6SM -SHRA OVC090 
     FM310600 22006KT P6SM BKN050 
     FM310800 24007KT P6SM BKN015 
     FM311300 24008KT P6SM OVC008
       
KBMI 302202Z 3022/3118 02008KT 2SM -RA BR SCT005 OVC080 
     FM310000 02009KT 3SM BR VCSH OVC005 
     FM310300 35012KT 4SM -RA BR OVC003 
     FM311500 35015KT 4SM -RA BR OVC005
       
KBNA 302107Z 3021/3118 21015G25KT P6SM BKN050 
     TEMPO 3100/3101 4SM TSRA BR OVC025CB 
     FM310300 23010KT P6SM SCT050 
     FM310600 24007KT 6SM BR OVC012
       
KBNO 301721Z 3018/3118 29022G30KT P6SM OVC035 
     FM310400 29020G28KT P6SM SCT040 
     FM311200 28015G25KT P6SM SKC
       
KBOI 301721Z 3018/3118 32020G28KT 3SM -SHRA OVC005 
     FM302100 32035G45KT P6SM VCSH OVC015 
     FM310100 32030G38KT P6SM OVC020 
     FM310600 30020G25KT P6SM SCT050 
     FM311200 30020G25KT P6SM VCFG SCT015 
     FM311500 31025G35KT P6SM SKC
       
KBOS 302137Z 3022/3124 11008KT P6SM FEW100 BKN200 
     FM310000 07005KT P6SM FEW200 
     FM311300 07005KT 2SM -SN OVC020 
     FM312100 10006KT 1SM -SNPL OVC010 
     FM312300 09008KT 1SM -PLSN OVC010
       
KBPI 301743Z 3018/3118 28009KT P6SM VCSH SCT040 BKN070 
     FM302200 05007KT P6SM -RA OVC024 
     FM310900 02012KT 4SM -RASN OVC014 
     FM311200 35010G20KT 5SM -SHRA OVC030
       
KBPK 301730Z 3018/3118 25011G16KT P6SM OVC030 
     FM310000 27006KT P6SM OVC020 
     FM311400 29004KT P6SM OVC025
       
KBPT 301720Z 3018/3118 33008KT P6SM SCT150 
     FM310500 VRB03KT 5SM BR SKC 
     FM311400 15007KT P6SM SKC
       
KBRD 301720Z 3018/3118 08010KT P6SM FEW060 
     FM310000 05004KT P6SM SKC 
     FM310800 04003KT 5SM BR SCT007 
     FM311400 05006KT P6SM SCT250
       
KBRL 302005Z 3020/3118 08012KT 6SM -DZ BR OVC003 
     FM302100 05010KT 5SM -RA BR OVC004 
     FM310000 01010KT 4SM -RA BR OVC004 
     FM310600 36013G17KT 3SM BR OVC004 
     FM311500 35012G17KT 6SM BR OVC010
       
KBRO 301720Z 3018/3118 36012G18KT P6SM SKC 
     FM302100 04009KT P6SM SKC 
     FM311500 16014G20KT P6SM SKC
       
KBTL 301821Z 3018/3118 09013G19KT P6SM -RA OVC009 
     FM302200 09012KT 3SM SHRA VCTS OVC008CB 
     FM310100 08010KT 4SM -SHRA OVC003 
     FM310500 07008KT 1 1/2SM -SHRA BR OVC003 
     FM310900 05007KT 1SM -SHRA OVC003 
     FM311400 03007KT 1/4SM -SHRA OVC003 
     FM311500 03007KT 1/2SM -SHRA OVC003
       
KBTM 302228Z 3022/3118 31012KT P6SM -SHRA SCT020 BKN040 OVC060 
     TEMPO 3022/3101 3SM -SHRASN BKN020 
     FM310100 33015G20KT 3SM -SHSN SCT015 OVC025 
     FM310600 34010KT P6SM VCSH FEW030 OVC050 
     FM311400 33008KT P6SM SCT030 OVC050
       
KBTR 301726Z 3018/3118 18010KT P6SM SCT100 OVC250 
     FM302100 20007KT P6SM BKN050 
     FM310000 VRB03KT P6SM SCT130
       
KBTV 301724Z 3018/3118 35008KT P6SM FEW200 
     FM302300 01005KT P6SM BKN200 
     FM310700 08004KT P6SM BKN150 
     FM311000 13005KT P6SM VCSH OVC090 
     FM311500 15007KT 4SM -RASN BR OVC035
       
KBUF 302102Z 3021/3118 07013KT P6SM FEW019 OVC050 
     FM310600 11016KT 6SM -RA OVC003 
     FM310900 11009KT 2SM -RA BR OVC007 
     FM311500 11008KT 5SM -RA OVC007
       
KBUR 301734Z 3018/3118 VRB05KT P6SM SCT250 
     FM301900 19008KT P6SM SCT250 
     FM310000 25014KT P6SM SCT250 
     FM310300 33016KT P6SM SKC 
     FM310800 32012KT P6SM SKC 
     FM311600 32005KT P6SM FEW250
       
KBVI 302220Z 3022/3118 12008KT P6SM BKN120 
     FM310000 14009KT P6SM OVC050 WS020/20040KT 
     FM310900 16012KT 4SM -RA OVC015 WS020/20045KT 
     FM311100 18006KT 3SM -SHRA BKN010 
     FM311300 15008KT 3SM -SHRA OVC008
       
KBVO 301720Z 3018/3118 28011G18KT P6SM OVC012 
     FM310200 32003KT P6SM SCT040 
     FM310500 00000KT P6SM SCT250 
     TEMPO 3110/3114 4SM BR 
     FM311400 02003KT P6SM SCT015
       
KBWG 301728Z 3018/3118 19018G26KT P6SM FEW035 SCT250 
     FM302200 19015G22KT P6SM -SHRA VCTS BKN035CB 
     FM310100 23010G18KT 5SM -TSRA BKN035CB 
     TEMPO 3101/3104 3SM -TSRA BKN025CB 
     FM310500 26008KT P6SM SCT015 BKN035 
     FM311100 25007KT P6SM OVC015
       
KBWI 302100Z 3021/3124 12008KT P6SM OVC050 
     FM310900 10007KT 5SM -RA BKN015 OVC025 
     FM311200 10009KT 4SM RA BKN010 OVC025 
     FM311500 10008KT 3SM RA BKN010 OVC025 WS020/16035KT 
     FM311800 13010G17KT 2SM SHRA BKN008 OVC020 WS020/17035KT 
     FM312100 15009KT 3SM SHRA BKN010 OVC020 WS020/16040KT
       
KBYI 302030Z 3020/3118 26025G35KT P6SM -SHRASN SCT010 OVC030 
     TEMPO 3020/3022 4SM -SN BR BKN010 OVC020 
     FM310200 30014G24KT P6SM -SHRA SCT010 OVC020
       
KBZN 301746Z 3018/3118 VRB05KT P6SM SCT015 BKN040 
     FM302100 VRB05KT P6SM VCSH SCT015 BKN035 
     FM310000 32010KT P6SM -SHRA OVC025 
     FM310300 30010KT 3SM -RA BR OVC025 
     FM310700 30010KT P6SM -SHRA OVC025